createdAt,value
2018-10-03T00:00:22.724Z,11.45
2018-10-03T00:01:22.718Z,11.51
2018-10-03T00:02:22.712Z,11.41
2018-10-03T00:03:22.706Z,11.45
2018-10-03T00:04:22.703Z,11.37
2018-10-03T00:05:22.695Z,11.45
2018-10-03T00:06:22.694Z,11.45
2018-10-03T00:07:22.685Z,11.47
2018-10-03T00:08:22.688Z,11.41
2018-10-03T00:09:22.683Z,11.44
2018-10-03T00:10:22.668Z,11.45
2018-10-03T00:11:22.664Z,11.48
2018-10-03T00:12:22.657Z,11.43
2018-10-03T00:13:22.656Z,11.50
2018-10-03T00:14:22.653Z,11.44
2018-10-03T00:15:22.645Z,11.47
2018-10-03T00:16:22.643Z,11.43
2018-10-03T00:17:22.634Z,11.47
2018-10-03T00:18:22.633Z,11.47
2018-10-03T00:19:22.622Z,11.45
2018-10-03T00:20:22.620Z,11.32
2018-10-03T00:21:23.272Z,11.40
2018-10-03T00:22:22.612Z,11.40
2018-10-03T00:23:22.701Z,11.40
2018-10-03T00:24:22.600Z,11.36
2018-10-03T00:25:22.595Z,11.43
2018-10-03T00:26:22.591Z,11.37
2018-10-03T00:27:22.593Z,11.32
2018-10-03T00:28:22.583Z,11.32
2018-10-03T00:29:22.576Z,11.33
2018-10-03T00:30:22.571Z,11.40
2018-10-03T00:31:22.565Z,11.32
2018-10-03T00:32:22.571Z,11.40
2018-10-03T00:33:22.551Z,11.33
2018-10-03T00:34:22.549Z,11.29
2018-10-03T00:35:22.546Z,11.23
2018-10-03T00:36:22.539Z,11.23
2018-10-03T00:37:22.531Z,11.22
2018-10-03T00:38:23.194Z,11.22
2018-10-03T00:39:22.522Z,11.19
2018-10-03T00:40:22.521Z,11.19
2018-10-03T00:41:22.512Z,11.23
2018-10-03T00:42:22.510Z,11.18
2018-10-03T00:43:22.502Z,11.22
2018-10-03T00:44:22.494Z,11.23
2018-10-03T00:45:22.490Z,11.23
2018-10-03T00:46:22.485Z,11.17
2018-10-03T00:47:22.481Z,11.18
2018-10-03T00:48:22.480Z,11.23
2018-10-03T00:49:22.472Z,11.22
2018-10-03T00:50:22.467Z,11.26
2018-10-03T00:51:22.461Z,11.23
2018-10-03T00:52:22.459Z,11.18
2018-10-03T00:53:22.447Z,11.33
2018-10-03T00:54:22.451Z,11.30
2018-10-03T00:55:22.437Z,11.27
2018-10-03T00:56:22.437Z,11.33
2018-10-03T00:57:22.427Z,11.25
2018-10-03T00:58:22.425Z,11.27
2018-10-03T00:59:22.418Z,11.22
2018-10-03T01:00:22.413Z,11.22
2018-10-03T01:01:22.407Z,11.15
2018-10-03T01:02:22.401Z,11.18
2018-10-03T01:03:22.398Z,11.23
2018-10-03T01:04:22.395Z,11.18
2018-10-03T01:05:22.386Z,11.19
2018-10-03T01:06:22.382Z,11.23
2018-10-03T01:07:22.379Z,11.22
2018-10-03T01:08:22.372Z,11.23
2018-10-03T01:09:22.364Z,11.26
2018-10-03T01:10:22.359Z,11.29
2018-10-03T01:11:22.356Z,11.19
2018-10-03T01:12:22.351Z,11.23
2018-10-03T01:13:22.346Z,11.29
2018-10-03T01:14:22.341Z,11.33
2018-10-03T01:15:22.335Z,11.35
2018-10-03T01:16:22.332Z,11.32
2018-10-03T01:17:22.324Z,11.22
2018-10-03T01:18:22.317Z,11.29
2018-10-03T01:19:22.321Z,11.25
2018-10-03T01:20:22.307Z,11.33
2018-10-03T01:21:22.304Z,11.22
2018-10-03T01:22:22.298Z,11.19
2018-10-03T01:23:22.297Z,11.11
2018-10-03T01:24:22.290Z,11.12
2018-10-03T01:25:22.285Z,11.12
2018-10-03T01:26:22.274Z,11.10
2018-10-03T01:27:22.273Z,11.17
2018-10-03T01:28:22.271Z,11.07
2018-10-03T01:29:22.261Z,11.11
2018-10-03T01:30:22.258Z,11.11
2018-10-03T01:31:22.258Z,11.11
2018-10-03T01:32:22.246Z,11.08
2018-10-03T01:33:22.242Z,11.05
2018-10-03T01:34:22.240Z,11.07
2018-10-03T01:35:22.228Z,11.12
2018-10-03T01:36:22.233Z,11.07
2018-10-03T01:37:22.220Z,11.12
2018-10-03T01:38:22.250Z,11.15
2018-10-03T01:39:22.211Z,11.12
2018-10-03T01:40:22.209Z,11.11
2018-10-03T01:41:22.198Z,11.07
2018-10-03T01:42:22.192Z,11.04
2018-10-03T01:43:22.192Z,10.96
2018-10-03T01:44:22.187Z,11.02
2018-10-03T01:45:22.179Z,11.02
2018-10-03T01:46:22.176Z,11.00
2018-10-03T01:47:22.168Z,10.94
2018-10-03T01:48:22.162Z,10.96
2018-10-03T01:49:22.155Z,10.93
2018-10-03T01:50:22.150Z,10.97
2018-10-03T01:51:22.148Z,10.94
2018-10-03T01:52:22.145Z,11.04
2018-10-03T01:53:22.133Z,11.04
2018-10-03T01:54:22.128Z,11.08
2018-10-03T01:55:22.124Z,10.97
2018-10-03T01:56:22.121Z,10.99
2018-10-03T01:57:22.112Z,10.90
2018-10-03T01:58:22.110Z,10.90
2018-10-03T01:59:22.102Z,10.90
2018-10-03T02:00:22.094Z,10.84
2018-10-03T02:01:22.089Z,10.76
2018-10-03T02:02:22.083Z,10.74
2018-10-03T02:03:22.080Z,10.75
2018-10-03T02:04:22.080Z,10.69
2018-10-03T02:05:22.068Z,10.71
2018-10-03T02:06:22.081Z,10.64
2018-10-03T02:07:22.061Z,10.61
2018-10-03T02:08:22.056Z,10.64
2018-10-03T02:09:22.048Z,10.72
2018-10-03T02:10:22.042Z,10.61
2018-10-03T02:11:22.038Z,10.69
2018-10-03T02:12:22.031Z,10.61
2018-10-03T02:13:22.023Z,10.64
2018-10-03T02:14:22.020Z,10.64
2018-10-03T02:15:22.015Z,10.60
2018-10-03T02:16:22.009Z,10.60
2018-10-03T02:17:22.003Z,10.57
2018-10-03T02:18:21.999Z,10.67
2018-10-03T02:19:21.993Z,10.74
2018-10-03T02:20:21.987Z,10.63
2018-10-03T02:21:21.981Z,10.64
2018-10-03T02:22:21.978Z,10.60
2018-10-03T02:23:21.971Z,10.60
2018-10-03T02:24:21.965Z,10.60
2018-10-03T02:25:21.960Z,10.56
2018-10-03T02:26:21.952Z,10.56
2018-10-03T02:27:21.948Z,10.54
2018-10-03T02:28:21.945Z,10.56
2018-10-03T02:29:21.937Z,10.53
2018-10-03T02:30:21.937Z,10.49
2018-10-03T02:31:21.927Z,10.54
2018-10-03T02:32:21.921Z,10.53
2018-10-03T02:33:21.915Z,10.56
2018-10-03T02:34:21.909Z,10.57
2018-10-03T02:35:21.905Z,10.59
2018-10-03T02:36:21.898Z,10.56
2018-10-03T02:37:21.892Z,10.51
2018-10-03T02:38:21.887Z,10.61
2018-10-03T02:39:21.887Z,10.64
2018-10-03T02:40:21.880Z,10.63
2018-10-03T02:41:21.871Z,10.64
2018-10-03T02:42:21.867Z,10.76
2018-10-03T02:43:21.859Z,10.75
2018-10-03T02:44:21.855Z,10.75
2018-10-03T02:45:21.849Z,10.69
2018-10-03T02:46:21.843Z,10.76
2018-10-03T02:47:21.837Z,10.71
2018-10-03T02:48:21.834Z,10.71
2018-10-03T02:49:21.828Z,10.69
2018-10-03T02:50:21.824Z,10.75
2018-10-03T02:51:21.822Z,10.75
2018-10-03T02:52:21.827Z,10.74
2018-10-03T02:53:21.813Z,10.74
2018-10-03T02:54:21.799Z,10.75
2018-10-03T02:55:21.796Z,10.72
2018-10-03T02:56:21.791Z,10.69
2018-10-03T02:57:21.787Z,10.69
2018-10-03T02:58:21.783Z,10.61
2018-10-03T02:59:21.769Z,10.74
2018-10-03T03:00:21.767Z,10.71
2018-10-03T03:01:21.758Z,10.71
2018-10-03T03:02:21.756Z,10.75
2018-10-03T03:03:21.749Z,10.68
2018-10-03T03:04:21.763Z,10.69
2018-10-03T03:05:21.738Z,10.72
2018-10-03T03:06:21.737Z,10.75
2018-10-03T03:07:21.732Z,10.76
2018-10-03T03:08:22.337Z,10.90
2018-10-03T03:09:21.715Z,10.76
2018-10-03T03:10:21.711Z,10.84
2018-10-03T03:11:21.714Z,10.78
2018-10-03T03:12:21.704Z,10.92
2018-10-03T03:13:21.695Z,10.92
2018-10-03T03:14:21.687Z,10.89
2018-10-03T03:15:21.689Z,10.92
2018-10-03T03:16:21.680Z,10.90
2018-10-03T03:17:21.675Z,10.89
2018-10-03T03:18:21.670Z,10.90
2018-10-03T03:19:21.662Z,10.84
2018-10-03T03:20:21.653Z,10.89
2018-10-03T03:21:21.653Z,10.82
2018-10-03T03:22:21.644Z,10.82
2018-10-03T03:23:21.640Z,10.86
2018-10-03T03:24:21.636Z,10.78
2018-10-03T03:25:21.630Z,10.69
2018-10-03T03:26:21.628Z,10.75
2018-10-03T03:27:21.621Z,10.72
2018-10-03T03:28:21.615Z,10.76
2018-10-03T03:29:21.604Z,10.69
2018-10-03T03:30:21.601Z,10.82
2018-10-03T03:31:21.596Z,10.71
2018-10-03T03:32:21.595Z,10.79
2018-10-03T03:33:21.581Z,10.86
2018-10-03T03:34:21.580Z,10.78
2018-10-03T03:35:21.572Z,10.81
2018-10-03T03:36:21.567Z,10.81
2018-10-03T03:37:21.563Z,10.81
2018-10-03T03:38:21.554Z,10.74
2018-10-03T03:39:21.553Z,10.74
2018-10-03T03:40:21.546Z,10.60
2018-10-03T03:41:21.550Z,10.60
2018-10-03T03:42:21.533Z,10.60
2018-10-03T03:43:21.532Z,10.51
2018-10-03T03:44:21.522Z,10.51
2018-10-03T03:45:21.518Z,10.54
2018-10-03T03:46:21.515Z,10.56
2018-10-03T03:47:21.505Z,10.53
2018-10-03T03:48:21.501Z,10.49
2018-10-03T03:49:21.494Z,10.56
2018-10-03T03:50:21.492Z,10.51
2018-10-03T03:51:21.484Z,10.60
2018-10-03T03:52:21.478Z,10.56
2018-10-03T03:53:21.473Z,10.57
2018-10-03T03:54:21.471Z,10.60
2018-10-03T03:55:21.461Z,10.60
2018-10-03T03:56:21.457Z,10.60
2018-10-03T03:57:21.450Z,10.57
2018-10-03T03:58:21.447Z,10.51
2018-10-03T03:59:21.443Z,10.57
2018-10-03T04:00:21.441Z,10.63
2018-10-03T04:01:21.433Z,10.64
2018-10-03T04:02:21.424Z,10.71
2018-10-03T04:03:21.418Z,10.74
2018-10-03T04:04:21.411Z,10.76
2018-10-03T04:05:21.407Z,10.79
2018-10-03T04:06:21.402Z,10.74
2018-10-03T04:07:21.401Z,10.75
2018-10-03T04:08:21.387Z,10.72
2018-10-03T04:09:21.385Z,10.75
2018-10-03T04:10:21.377Z,10.75
2018-10-03T04:11:21.379Z,10.74
2018-10-03T04:12:21.367Z,10.78
2018-10-03T04:13:22.323Z,10.84
2018-10-03T04:14:21.356Z,10.74
2018-10-03T04:15:21.349Z,10.78
2018-10-03T04:16:21.354Z,10.87
2018-10-03T04:17:21.339Z,10.86
2018-10-03T04:18:21.337Z,10.78
2018-10-03T04:19:21.329Z,10.75
2018-10-03T04:20:21.326Z,10.82
2018-10-03T04:21:21.318Z,10.72
2018-10-03T04:22:21.313Z,10.76
2018-10-03T04:23:21.314Z,10.87
2018-10-03T04:24:21.302Z,10.86
2018-10-03T04:25:21.296Z,10.90
2018-10-03T04:26:21.292Z,10.89
2018-10-03T04:27:21.287Z,10.84
2018-10-03T04:28:21.285Z,10.82
2018-10-03T04:29:21.269Z,10.93
2018-10-03T04:30:21.265Z,10.87
2018-10-03T04:31:21.264Z,10.94
2018-10-03T04:32:21.256Z,10.90
2018-10-03T04:33:21.253Z,10.89
2018-10-03T04:34:21.247Z,10.86
2018-10-03T04:35:21.242Z,10.79
2018-10-03T04:36:21.236Z,10.86
2018-10-03T04:37:21.230Z,10.86
2018-10-03T04:38:21.229Z,10.89
2018-10-03T04:39:21.217Z,10.87
2018-10-03T04:40:21.214Z,10.90
2018-10-03T04:41:21.207Z,10.89
2018-10-03T04:42:21.266Z,10.92
2018-10-03T04:43:21.197Z,10.92
2018-10-03T04:44:21.195Z,10.94
2018-10-03T04:45:21.188Z,10.84
2018-10-03T04:46:21.183Z,10.90
2018-10-03T04:47:21.175Z,10.87
2018-10-03T04:48:21.169Z,10.79
2018-10-03T04:49:21.166Z,10.79
2018-10-03T04:50:21.156Z,10.96
2018-10-03T04:51:21.160Z,10.90
2018-10-03T04:52:21.153Z,10.90
2018-10-03T04:53:21.142Z,10.79
2018-10-03T04:54:21.142Z,10.89
2018-10-03T04:55:21.135Z,10.87
2018-10-03T04:56:21.127Z,10.89
2018-10-03T04:57:21.123Z,10.86
2018-10-03T04:58:21.115Z,10.93
2018-10-03T04:59:21.109Z,10.90
2018-10-03T05:00:21.107Z,10.96
2018-10-03T05:01:21.102Z,10.97
2018-10-03T05:02:21.099Z,10.94
2018-10-03T05:03:21.089Z,10.99
2018-10-03T05:04:21.083Z,10.97
2018-10-03T05:05:21.076Z,10.93
2018-10-03T05:06:21.078Z,10.89
2018-10-03T05:07:21.067Z,10.89
2018-10-03T05:08:21.080Z,10.87
2018-10-03T05:09:21.054Z,10.90
2018-10-03T05:10:21.051Z,10.89
2018-10-03T05:11:21.096Z,10.86
2018-10-03T05:12:21.038Z,10.89
2018-10-03T05:13:21.035Z,10.82
2018-10-03T05:14:21.028Z,10.94
2018-10-03T05:15:21.025Z,10.92
2018-10-03T05:16:21.013Z,10.93
2018-10-03T05:17:21.017Z,10.92
2018-10-03T05:18:21.006Z,10.92
2018-10-03T05:19:21.002Z,10.92
2018-10-03T05:20:20.999Z,10.92
2018-10-03T05:21:20.989Z,10.97
2018-10-03T05:22:20.984Z,10.97
2018-10-03T05:23:20.979Z,11.00
2018-10-03T05:24:20.973Z,11.10
2018-10-03T05:25:20.967Z,11.02
2018-10-03T05:26:20.961Z,11.05
2018-10-03T05:27:20.963Z,10.99
2018-10-03T05:28:20.953Z,10.93
2018-10-03T05:29:20.946Z,10.94
2018-10-03T05:30:20.944Z,10.96
2018-10-03T05:31:20.930Z,11.07
2018-10-03T05:32:20.930Z,11.05
2018-10-03T05:33:20.982Z,10.94
2018-10-03T05:34:20.919Z,11.00
2018-10-03T05:35:20.914Z,10.94
2018-10-03T05:36:20.915Z,10.92
2018-10-03T05:37:20.902Z,11.10
2018-10-03T05:38:20.893Z,11.07
2018-10-03T05:39:20.897Z,11.05
2018-10-03T05:40:20.884Z,11.02
2018-10-03T05:41:20.880Z,11.08
2018-10-03T05:42:20.875Z,10.92
2018-10-03T05:43:20.870Z,10.96
2018-10-03T05:44:20.864Z,10.86
2018-10-03T05:45:20.859Z,10.93
2018-10-03T05:46:20.851Z,10.86
2018-10-03T05:47:20.846Z,10.96
2018-10-03T05:48:20.848Z,10.96
2018-10-03T05:49:20.837Z,10.89
2018-10-03T05:50:20.832Z,10.93
2018-10-03T05:51:20.825Z,10.94
2018-10-03T05:52:20.832Z,10.94
2018-10-03T05:53:20.812Z,10.92
2018-10-03T05:54:20.808Z,10.93
2018-10-03T05:55:20.804Z,10.96
2018-10-03T05:56:20.797Z,10.93
2018-10-03T05:57:20.795Z,10.94
2018-10-03T05:58:20.787Z,10.89
2018-10-03T05:59:20.782Z,10.96
2018-10-03T06:00:20.775Z,11.00
2018-10-03T06:01:20.781Z,11.02
2018-10-03T06:02:20.763Z,10.99
2018-10-03T06:03:20.763Z,11.05
2018-10-03T06:04:20.755Z,11.02
2018-10-03T06:05:20.751Z,11.05
2018-10-03T06:06:20.744Z,11.05
2018-10-03T06:07:20.739Z,11.04
2018-10-03T06:08:20.733Z,11.05
2018-10-03T06:09:20.726Z,11.07
2018-10-03T06:10:20.722Z,11.15
2018-10-03T06:11:20.716Z,11.11
2018-10-03T06:12:20.712Z,11.08
2018-10-03T06:13:20.706Z,11.12
2018-10-03T06:14:20.706Z,11.10
2018-10-03T06:15:20.698Z,11.12
2018-10-03T06:16:20.692Z,11.10
2018-10-03T06:17:20.685Z,11.07
2018-10-03T06:18:20.682Z,11.15
2018-10-03T06:19:20.674Z,11.18
2018-10-03T06:20:20.668Z,11.17
2018-10-03T06:21:20.659Z,11.30
2018-10-03T06:22:20.657Z,11.26
2018-10-03T06:23:20.650Z,11.37
2018-10-03T06:24:20.648Z,11.40
2018-10-03T06:25:20.647Z,11.35
2018-10-03T06:26:20.634Z,11.41
2018-10-03T06:27:20.631Z,11.48
2018-10-03T06:28:20.688Z,11.40
2018-10-03T06:29:20.620Z,11.33
2018-10-03T06:30:20.614Z,11.33
2018-10-03T06:31:20.607Z,11.45
2018-10-03T06:32:20.605Z,11.51
2018-10-03T06:33:20.641Z,11.47
2018-10-03T06:34:20.594Z,11.45
2018-10-03T06:35:20.588Z,11.47
2018-10-03T06:36:20.591Z,11.44
2018-10-03T06:37:20.579Z,11.51
2018-10-03T06:38:20.570Z,11.52
2018-10-03T06:39:20.606Z,11.59
2018-10-03T06:40:20.618Z,11.62
2018-10-03T06:41:20.579Z,11.60
2018-10-03T06:42:20.553Z,11.66
2018-10-03T06:43:20.547Z,11.57
2018-10-03T06:44:20.540Z,11.63
2018-10-03T06:45:20.539Z,11.62
2018-10-03T06:46:20.528Z,11.57
2018-10-03T06:47:20.524Z,11.45
2018-10-03T06:48:20.519Z,11.33
2018-10-03T06:49:20.513Z,11.18
2018-10-03T06:50:20.507Z,11.12
2018-10-03T06:51:20.503Z,10.92
2018-10-03T06:52:20.500Z,10.93
2018-10-03T06:53:20.492Z,10.86
2018-10-03T06:54:21.367Z,10.93
2018-10-03T06:55:20.482Z,10.93
2018-10-03T06:56:20.505Z,10.92
2018-10-03T06:57:20.472Z,10.93
2018-10-03T06:58:20.467Z,10.89
2018-10-03T06:59:20.461Z,10.90
2018-10-03T07:00:20.456Z,10.81
2018-10-03T07:01:20.453Z,10.81
2018-10-03T07:02:20.442Z,10.84
2018-10-03T07:03:20.444Z,10.89
2018-10-03T07:04:20.435Z,10.90
2018-10-03T07:05:20.431Z,10.89
2018-10-03T07:06:20.424Z,10.90
2018-10-03T07:07:20.422Z,10.90
2018-10-03T07:08:20.413Z,10.93
2018-10-03T07:09:20.407Z,10.92
2018-10-03T07:10:20.403Z,10.93
2018-10-03T07:11:20.395Z,10.93
2018-10-03T07:12:20.391Z,10.97
2018-10-03T07:13:20.384Z,11.08
2018-10-03T07:14:20.381Z,11.18
2018-10-03T07:15:20.375Z,11.26
2018-10-03T07:16:20.373Z,11.35
2018-10-03T07:17:20.368Z,11.41
2018-10-03T07:18:20.365Z,11.57
2018-10-03T07:19:20.354Z,11.54
2018-10-03T07:20:20.410Z,11.57
2018-10-03T07:21:20.339Z,11.65
2018-10-03T07:22:20.338Z,11.52
2018-10-03T07:23:20.332Z,11.47
2018-10-03T07:24:20.326Z,11.47
2018-10-03T07:25:20.327Z,11.47
2018-10-03T07:26:20.320Z,11.43
2018-10-03T07:27:20.313Z,11.51
2018-10-03T07:28:20.308Z,11.65
2018-10-03T07:29:20.306Z,11.69
2018-10-03T07:30:20.296Z,11.86
2018-10-03T07:31:20.287Z,11.88
2018-10-03T07:32:20.287Z,11.87
2018-10-03T07:33:20.292Z,11.81
2018-10-03T07:34:20.281Z,11.90
2018-10-03T07:35:20.269Z,11.99
2018-10-03T07:36:20.271Z,12.06
2018-10-03T07:37:20.261Z,12.07
2018-10-03T07:38:20.268Z,12.09
2018-10-03T07:39:20.250Z,12.03
2018-10-03T07:40:20.244Z,12.04
2018-10-03T07:41:20.243Z,12.18
2018-10-03T07:42:20.234Z,12.04
2018-10-03T07:43:20.233Z,12.09
2018-10-03T07:44:20.224Z,12.15
2018-10-03T07:45:20.223Z,12.22
2018-10-03T07:46:20.218Z,12.28
2018-10-03T07:47:20.210Z,12.35
2018-10-03T07:48:20.207Z,12.42
2018-10-03T07:49:20.201Z,12.45
2018-10-03T07:50:20.197Z,12.62
2018-10-03T07:51:20.199Z,12.70
2018-10-03T07:52:20.187Z,12.61
2018-10-03T07:53:20.182Z,12.55
2018-10-03T07:54:20.177Z,12.57
2018-10-03T07:55:20.175Z,12.55
2018-10-03T07:56:20.234Z,12.54
2018-10-03T07:57:20.228Z,12.61
2018-10-03T07:58:20.160Z,12.50
2018-10-03T07:59:20.180Z,12.67
2018-10-03T08:00:20.151Z,12.64
2018-10-03T08:01:20.145Z,12.73
2018-10-03T08:02:20.140Z,12.75
2018-10-03T08:03:20.135Z,12.64
2018-10-03T08:04:20.134Z,12.67
2018-10-03T08:05:20.129Z,12.67
2018-10-03T08:06:20.122Z,12.65
2018-10-03T08:07:20.118Z,12.65
2018-10-03T08:08:20.122Z,12.65
2018-10-03T08:09:20.111Z,12.53
2018-10-03T08:10:20.102Z,12.61
2018-10-03T08:11:20.102Z,12.64
2018-10-03T08:12:20.101Z,12.65
2018-10-03T08:13:20.091Z,12.65
2018-10-03T08:14:20.086Z,12.58
2018-10-03T08:15:20.084Z,12.58
2018-10-03T08:16:20.080Z,12.62
2018-10-03T08:17:20.086Z,12.65
2018-10-03T08:18:20.068Z,12.72
2018-10-03T08:19:20.067Z,12.54
2018-10-03T08:20:20.058Z,12.58
2018-10-03T08:21:20.053Z,12.67
2018-10-03T08:22:20.052Z,12.72
2018-10-03T08:23:20.053Z,12.67
2018-10-03T08:24:20.150Z,12.67
2018-10-03T08:25:20.035Z,12.62
2018-10-03T08:26:20.891Z,12.68
2018-10-03T08:27:20.037Z,12.60
2018-10-03T08:28:20.024Z,12.75
2018-10-03T08:29:20.017Z,12.67
2018-10-03T08:30:20.015Z,12.75
2018-10-03T08:31:20.011Z,12.79
2018-10-03T08:32:20.019Z,12.75
2018-10-03T08:33:20.062Z,12.68
2018-10-03T08:34:20.003Z,12.65
2018-10-03T08:35:19.994Z,12.68
2018-10-03T08:36:19.989Z,12.70
2018-10-03T08:37:19.990Z,12.53
2018-10-03T08:38:19.983Z,12.40
2018-10-03T08:39:19.976Z,12.43
2018-10-03T08:40:20.005Z,12.53
2018-10-03T08:41:19.966Z,12.64
2018-10-03T08:42:19.963Z,12.60
2018-10-03T08:43:19.954Z,12.68
2018-10-03T08:44:19.951Z,12.67
2018-10-03T08:45:19.999Z,12.55
2018-10-03T08:46:19.943Z,12.68
2018-10-03T08:47:19.941Z,12.62
2018-10-03T08:48:19.935Z,12.60
2018-10-03T08:49:19.930Z,12.62
2018-10-03T08:50:19.943Z,12.67
2018-10-03T08:51:19.919Z,12.70
2018-10-03T08:52:19.922Z,12.78
2018-10-03T08:53:19.912Z,12.79
2018-10-03T08:54:19.908Z,12.79
2018-10-03T08:55:19.906Z,12.83
2018-10-03T08:56:19.898Z,12.93
2018-10-03T08:57:19.895Z,12.91
2018-10-03T08:58:19.970Z,12.86
2018-10-03T08:59:19.889Z,12.97
2018-10-03T09:00:19.881Z,12.91
2018-10-03T09:01:19.877Z,13.04
2018-10-03T09:02:19.874Z,13.01
2018-10-03T09:03:19.875Z,12.82
2018-10-03T09:04:19.879Z,12.79
2018-10-03T09:05:19.858Z,12.87
2018-10-03T09:06:19.860Z,12.87
2018-10-03T09:07:19.851Z,12.93
2018-10-03T09:08:19.855Z,12.97
2018-10-03T09:09:19.848Z,12.98
2018-10-03T09:10:19.840Z,13.00
2018-10-03T09:11:19.838Z,12.91
2018-10-03T09:12:19.833Z,12.80
2018-10-03T09:13:19.823Z,12.86
2018-10-03T09:14:19.826Z,12.90
2018-10-03T09:15:19.824Z,12.95
2018-10-03T09:16:19.816Z,13.04
2018-10-03T09:17:19.810Z,13.12
2018-10-03T09:18:19.806Z,13.11
2018-10-03T09:19:19.803Z,13.09
2018-10-03T09:20:19.799Z,13.13
2018-10-03T09:21:19.828Z,13.11
2018-10-03T09:22:19.787Z,13.20
2018-10-03T09:23:19.783Z,13.35
2018-10-03T09:24:19.785Z,13.31
2018-10-03T09:25:19.775Z,13.22
2018-10-03T09:26:19.773Z,13.33
2018-10-03T09:27:19.766Z,13.38
2018-10-03T09:28:19.802Z,13.35
2018-10-03T09:29:19.758Z,13.22
2018-10-03T09:30:19.755Z,13.42
2018-10-03T09:31:19.751Z,13.53
2018-10-03T09:32:19.747Z,13.53
2018-10-03T09:33:19.741Z,13.57
2018-10-03T09:34:19.737Z,13.63
2018-10-03T09:35:19.735Z,13.70
2018-10-03T09:36:19.729Z,13.75
2018-10-03T09:37:19.724Z,13.92
2018-10-03T09:38:19.721Z,13.78
2018-10-03T09:39:19.734Z,13.72
2018-10-03T09:40:19.715Z,13.57
2018-10-03T09:41:19.706Z,13.41
2018-10-03T09:42:19.705Z,13.33
2018-10-03T09:43:19.709Z,13.42
2018-10-03T09:44:19.743Z,13.37
2018-10-03T09:45:19.693Z,13.25
2018-10-03T09:46:19.689Z,13.33
2018-10-03T09:47:19.687Z,13.50
2018-10-03T09:48:19.680Z,13.57
2018-10-03T09:49:19.676Z,13.47
2018-10-03T09:50:19.692Z,13.57
2018-10-03T09:51:19.666Z,13.63
2018-10-03T09:52:19.664Z,13.71
2018-10-03T09:53:19.670Z,13.68
2018-10-03T09:54:19.659Z,13.68
2018-10-03T09:55:19.650Z,13.86
2018-10-03T09:56:19.648Z,13.85
2018-10-03T09:57:19.645Z,13.65
2018-10-03T09:58:19.641Z,13.60
2018-10-03T09:59:19.637Z,13.54
2018-10-03T10:00:19.648Z,13.68
2018-10-03T10:01:19.626Z,13.67
2018-10-03T10:02:19.627Z,13.71
2018-10-03T10:03:19.621Z,13.67
2018-10-03T10:04:19.618Z,13.68
2018-10-03T10:05:19.619Z,13.85
2018-10-03T10:06:19.613Z,13.92
2018-10-03T10:07:19.608Z,13.95
2018-10-03T10:08:19.603Z,13.87
2018-10-03T10:09:19.601Z,13.81
2018-10-03T10:10:19.659Z,13.77
2018-10-03T10:11:19.660Z,13.71
2018-10-03T10:12:19.587Z,13.81
2018-10-03T10:13:19.581Z,13.83
2018-10-03T10:14:19.588Z,13.85
2018-10-03T10:15:19.580Z,13.81
2018-10-03T10:16:19.574Z,13.79
2018-10-03T10:17:19.569Z,13.72
2018-10-03T10:18:19.563Z,13.83
2018-10-03T10:19:19.568Z,13.86
2018-10-03T10:20:19.574Z,13.79
2018-10-03T10:21:19.557Z,13.97
2018-10-03T10:22:19.551Z,13.96
2018-10-03T10:23:19.547Z,14.00
2018-10-03T10:24:19.546Z,14.00
2018-10-03T10:25:19.542Z,14.04
2018-10-03T10:26:19.535Z,14.05
2018-10-03T10:27:19.534Z,14.04
2018-10-03T10:28:19.531Z,14.03
2018-10-03T10:29:20.339Z,13.97
2018-10-03T10:30:19.524Z,13.96
2018-10-03T10:31:19.517Z,13.87
2018-10-03T10:32:19.606Z,13.83
2018-10-03T10:33:19.515Z,13.67
2018-10-03T10:34:19.508Z,13.46
2018-10-03T10:35:19.511Z,13.13
2018-10-03T10:36:19.497Z,12.78
2018-10-03T10:37:19.498Z,12.65
2018-10-03T10:38:19.499Z,12.61
2018-10-03T10:39:19.497Z,12.49
2018-10-03T10:40:19.588Z,12.43
2018-10-03T10:41:19.603Z,12.37
2018-10-03T10:42:19.480Z,12.27
2018-10-03T10:43:19.544Z,12.36
2018-10-03T10:44:19.468Z,12.31
2018-10-03T10:45:19.473Z,12.22
2018-10-03T10:46:19.465Z,12.20
2018-10-03T10:47:19.459Z,12.13
2018-10-03T10:48:19.455Z,12.15
2018-10-03T10:49:19.449Z,12.15
2018-10-03T10:50:19.494Z,12.15
2018-10-03T10:51:19.446Z,12.24
2018-10-03T10:52:19.438Z,12.18
2018-10-03T10:53:19.432Z,12.12
2018-10-03T10:54:19.426Z,12.15
2018-10-03T10:55:19.423Z,12.13
2018-10-03T10:56:19.416Z,12.07
2018-10-03T10:57:19.417Z,11.87
2018-10-03T10:58:19.410Z,11.87
2018-10-03T10:59:19.404Z,11.97
2018-10-03T11:00:19.401Z,12.13
2018-10-03T11:01:19.395Z,12.13
2018-10-03T11:02:19.394Z,12.12
2018-10-03T11:03:19.388Z,12.07
2018-10-03T11:04:19.385Z,12.02
2018-10-03T11:05:19.380Z,12.04
2018-10-03T11:06:19.380Z,12.18
2018-10-03T11:07:19.366Z,12.21
2018-10-03T11:08:19.367Z,12.24
2018-10-03T11:09:19.357Z,12.25
2018-10-03T11:10:19.356Z,12.24
2018-10-03T11:11:19.348Z,12.29
2018-10-03T11:12:19.345Z,12.32
2018-10-03T11:13:19.356Z,12.29
2018-10-03T11:14:19.343Z,12.42
2018-10-03T11:15:19.332Z,12.39
2018-10-03T11:16:19.333Z,12.55
2018-10-03T11:17:19.342Z,12.70
2018-10-03T11:18:19.341Z,12.67
2018-10-03T11:19:19.317Z,12.67
2018-10-03T11:20:19.308Z,12.82
2018-10-03T11:21:19.307Z,12.85
2018-10-03T11:22:19.302Z,12.83
2018-10-03T11:23:19.300Z,12.91
2018-10-03T11:24:19.452Z,13.03
2018-10-03T11:25:19.285Z,13.12
2018-10-03T11:26:19.284Z,13.12
2018-10-03T11:27:19.278Z,13.28
2018-10-03T11:28:19.275Z,13.31
2018-10-03T11:29:19.856Z,13.46
2018-10-03T11:30:19.264Z,13.53
2018-10-03T11:31:19.259Z,13.68
2018-10-03T11:32:19.259Z,13.65
2018-10-03T11:33:19.257Z,13.81
2018-10-03T11:34:19.254Z,14.15
2018-10-03T11:35:19.244Z,14.26
2018-10-03T11:36:19.242Z,14.33
2018-10-03T11:37:19.242Z,14.35
2018-10-03T11:38:19.296Z,14.59
2018-10-03T11:39:19.225Z,14.40
2018-10-03T11:40:19.224Z,14.33
2018-10-03T11:41:19.217Z,14.17
2018-10-03T11:42:19.249Z,13.97
2018-10-03T11:43:19.237Z,13.95
2018-10-03T11:44:19.211Z,13.78
2018-10-03T11:45:19.209Z,13.70
2018-10-03T11:46:19.204Z,13.72
2018-10-03T11:47:19.222Z,13.67
2018-10-03T11:48:19.191Z,13.44
2018-10-03T11:49:19.190Z,13.39
2018-10-03T11:50:19.187Z,13.38
2018-10-03T11:51:19.184Z,13.31
2018-10-03T11:52:19.180Z,13.20
2018-10-03T11:53:19.178Z,13.19
2018-10-03T11:54:19.169Z,13.12
2018-10-03T11:55:19.168Z,12.94
2018-10-03T11:56:19.163Z,12.80
2018-10-03T11:57:19.159Z,12.61
2018-10-03T11:58:19.159Z,12.64
2018-10-03T11:59:19.161Z,12.62
2018-10-03T12:00:19.149Z,12.64
2018-10-03T12:01:19.144Z,12.68
2018-10-03T12:02:19.143Z,12.64
2018-10-03T12:03:19.237Z,12.62
2018-10-03T12:04:19.863Z,12.68
2018-10-03T12:05:19.126Z,12.61
2018-10-03T12:06:19.130Z,12.79
2018-10-03T12:07:19.119Z,12.75
2018-10-03T12:08:19.864Z,12.76
2018-10-03T12:09:19.173Z,12.83
2018-10-03T12:10:19.108Z,12.83
2018-10-03T12:11:19.102Z,12.86
2018-10-03T12:12:19.096Z,12.83
2018-10-03T12:13:19.099Z,12.95
2018-10-03T12:14:19.089Z,13.12
2018-10-03T12:15:19.089Z,13.20
2018-10-03T12:16:19.086Z,13.30
2018-10-03T12:17:19.080Z,13.46
2018-10-03T12:18:19.075Z,13.47
2018-10-03T12:19:19.069Z,13.53
2018-10-03T12:20:19.065Z,13.65
2018-10-03T12:21:19.061Z,13.59
2018-10-03T12:22:19.059Z,13.52
2018-10-03T12:23:19.058Z,13.47
2018-10-03T12:24:19.051Z,13.19
2018-10-03T12:25:19.120Z,13.19
2018-10-03T12:26:19.039Z,13.12
2018-10-03T12:27:19.037Z,13.09
2018-10-03T12:28:19.035Z,13.09
2018-10-03T12:29:19.027Z,12.97
2018-10-03T12:30:19.023Z,12.95
2018-10-03T12:31:19.019Z,12.94
2018-10-03T12:32:19.016Z,12.85
2018-10-03T12:33:19.039Z,12.82
2018-10-03T12:34:19.010Z,12.94
2018-10-03T12:35:19.030Z,12.94
2018-10-03T12:36:18.998Z,12.93
2018-10-03T12:37:19.871Z,13.00
2018-10-03T12:38:18.993Z,13.12
2018-10-03T12:39:18.984Z,13.19
2018-10-03T12:40:19.019Z,13.42
2018-10-03T12:41:18.979Z,13.54
2018-10-03T12:42:18.978Z,13.65
2018-10-03T12:43:18.969Z,13.85
2018-10-03T12:44:18.963Z,13.83
2018-10-03T12:45:18.964Z,13.86
2018-10-03T12:46:18.970Z,13.93
2018-10-03T12:47:18.952Z,13.93
2018-10-03T12:48:18.951Z,13.96
2018-10-03T12:49:18.941Z,13.97
2018-10-03T12:50:18.941Z,14.07
2018-10-03T12:51:18.933Z,14.08
2018-10-03T12:52:18.934Z,14.12